sensor_id;sensor_type;location;lat;lon;timestamp;P1;durP1;ratioP1;P2;durP2;ratioP2
39994;SDS011;25686;51.908;10.418;2022-09-14T00:01:11;11.57;;;2.00;;
39994;SDS011;25686;51.908;10.418;2022-09-14T00:03:13;6.40;;;1.45;;
39994;SDS011;25686;51.908;10.418;2022-09-14T00:05:14;7.63;;;1.55;;
39994;SDS011;25686;51.908;10.418;2022-09-14T00:07:15;13.70;;;2.00;;
39994;SDS011;25686;51.908;10.418;2022-09-14T00:09:17;10.38;;;1.77;;
39994;SDS011;25686;51.908;10.418;2022-09-14T00:11:20;9.45;;;1.50;;
39994;SDS011;25686;51.908;10.418;2022-09-14T00:13:21;10.63;;;2.08;;
39994;SDS011;25686;51.908;10.418;2022-09-14T00:15:22;6.70;;;1.60;;
39994;SDS011;25686;51.908;10.418;2022-09-14T00:17:23;10.57;;;1.80;;
39994;SDS011;25686;51.908;10.418;2022-09-14T00:19:24;10.15;;;1.65;;
39994;SDS011;25686;51.908;10.418;2022-09-14T00:21:26;9.82;;;1.98;;
39994;SDS011;25686;51.908;10.418;2022-09-14T00:23:27;9.60;;;2.00;;
39994;SDS011;25686;51.908;10.418;2022-09-14T00:25:29;5.70;;;1.70;;
39994;SDS011;25686;51.908;10.418;2022-09-14T00:27:29;7.43;;;1.73;;
39994;SDS011;25686;51.908;10.418;2022-09-14T00:29:30;11.90;;;1.70;;
39994;SDS011;25686;51.908;10.418;2022-09-14T00:31:33;9.27;;;1.70;;
39994;SDS011;25686;51.908;10.418;2022-09-14T00:33:35;8.30;;;1.75;;
39994;SDS011;25686;51.908;10.418;2022-09-14T00:35:37;12.85;;;2.15;;
39994;SDS011;25686;51.908;10.418;2022-09-14T00:37:38;11.05;;;1.92;;
39994;SDS011;25686;51.908;10.418;2022-09-14T00:39:39;6.25;;;1.63;;
39994;SDS011;25686;51.908;10.418;2022-09-14T00:41:40;8.15;;;1.85;;
39994;SDS011;25686;51.908;10.418;2022-09-14T00:45:55;11.90;;;2.05;;
39994;SDS011;25686;51.908;10.418;2022-09-14T00:47:56;9.02;;;1.70;;
39994;SDS011;25686;51.908;10.418;2022-09-14T00:49:58;7.80;;;1.65;;
39994;SDS011;25686;51.908;10.418;2022-09-14T00:52:02;8.07;;;1.80;;
39994;SDS011;25686;51.908;10.418;2022-09-14T00:54:07;11.57;;;2.00;;
39994;SDS011;25686;51.908;10.418;2022-09-14T00:56:08;12.60;;;2.28;;
39994;SDS011;25686;51.908;10.418;2022-09-14T00:58:09;8.65;;;1.60;;
39994;SDS011;25686;51.908;10.418;2022-09-14T01:00:12;8.10;;;1.50;;
39994;SDS011;25686;51.908;10.418;2022-09-14T01:02:13;9.43;;;1.90;;
39994;SDS011;25686;51.908;10.418;2022-09-14T01:04:14;12.13;;;1.80;;
39994;SDS011;25686;51.908;10.418;2022-09-14T01:06:19;8.88;;;1.88;;
39994;SDS011;25686;51.908;10.418;2022-09-14T01:09:04;8.15;;;1.60;;
39994;SDS011;25686;51.908;10.418;2022-09-14T01:10:55;10.07;;;1.90;;
39994;SDS011;25686;51.908;10.418;2022-09-14T01:13:07;13.38;;;1.80;;
39994;SDS011;25686;51.908;10.418;2022-09-14T01:21:37;10.13;;;1.55;;
39994;SDS011;25686;51.908;10.418;2022-09-14T01:28:11;7.25;;;1.50;;
39994;SDS011;25686;51.908;10.418;2022-09-14T01:30:17;9.02;;;1.60;;
39994;SDS011;25686;51.908;10.418;2022-09-14T01:32:21;9.13;;;1.77;;
39994;SDS011;25686;51.908;10.418;2022-09-14T01:36:46;9.77;;;1.63;;
39994;SDS011;25686;51.908;10.418;2022-09-14T01:38:50;7.55;;;2.05;;
39994;SDS011;25686;51.908;10.418;2022-09-14T01:40:52;11.35;;;1.92;;
39994;SDS011;25686;51.908;10.418;2022-09-14T01:42:56;10.57;;;1.67;;
39994;SDS011;25686;51.908;10.418;2022-09-14T01:44:59;10.48;;;1.80;;
39994;SDS011;25686;51.908;10.418;2022-09-14T01:47:06;9.77;;;1.98;;
39994;SDS011;25686;51.908;10.418;2022-09-14T01:49:10;7.82;;;1.83;;
39994;SDS011;25686;51.908;10.418;2022-09-14T01:51:13;8.05;;;1.80;;
39994;SDS011;25686;51.908;10.418;2022-09-14T01:53:21;8.13;;;1.52;;
39994;SDS011;25686;51.908;10.418;2022-09-14T01:55:24;6.68;;;1.50;;
39994;SDS011;25686;51.908;10.418;2022-09-14T01:59:35;7.97;;;1.40;;
39994;SDS011;25686;51.908;10.418;2022-09-14T02:01:40;11.48;;;1.88;;
39994;SDS011;25686;51.908;10.418;2022-09-14T02:03:45;10.45;;;1.80;;
39994;SDS011;25686;51.908;10.418;2022-09-14T02:05:57;10.20;;;1.67;;
39994;SDS011;25686;51.908;10.418;2022-09-14T02:07:59;8.85;;;1.73;;
39994;SDS011;25686;51.908;10.418;2022-09-14T02:10:00;9.65;;;1.65;;
39994;SDS011;25686;51.908;10.418;2022-09-14T02:12:02;13.15;;;1.50;;
39994;SDS011;25686;51.908;10.418;2022-09-14T02:14:03;7.40;;;1.52;;
39994;SDS011;25686;51.908;10.418;2022-09-14T02:16:04;8.15;;;1.55;;
39994;SDS011;25686;51.908;10.418;2022-09-14T02:18:05;8.57;;;1.98;;
39994;SDS011;25686;51.908;10.418;2022-09-14T02:20:08;12.00;;;2.00;;
39994;SDS011;25686;51.908;10.418;2022-09-14T02:22:11;11.32;;;2.20;;
39994;SDS011;25686;51.908;10.418;2022-09-14T02:24:12;10.05;;;1.63;;
39994;SDS011;25686;51.908;10.418;2022-09-14T02:26:13;7.28;;;1.52;;
39994;SDS011;25686;51.908;10.418;2022-09-14T02:28:14;10.85;;;2.20;;
39994;SDS011;25686;51.908;10.418;2022-09-14T02:30:15;8.75;;;1.60;;
39994;SDS011;25686;51.908;10.418;2022-09-14T02:37:00;5.75;;;1.73;;
39994;SDS011;25686;51.908;10.418;2022-09-14T02:39:03;7.30;;;1.50;;
39994;SDS011;25686;51.908;10.418;2022-09-14T02:41:26;7.13;;;1.67;;
39994;SDS011;25686;51.908;10.418;2022-09-14T02:43:46;6.55;;;1.65;;
39994;SDS011;25686;51.908;10.418;2022-09-14T02:45:59;7.75;;;2.10;;
39994;SDS011;25686;51.908;10.418;2022-09-14T02:48:13;10.02;;;1.90;;
39994;SDS011;25686;51.908;10.418;2022-09-14T02:50:28;12.85;;;2.20;;
39994;SDS011;25686;51.908;10.418;2022-09-14T02:52:36;6.70;;;1.50;;
39994;SDS011;25686;51.908;10.418;2022-09-14T02:54:51;8.75;;;1.83;;
39994;SDS011;25686;51.908;10.418;2022-09-14T02:56:58;7.63;;;1.50;;
39994;SDS011;25686;51.908;10.418;2022-09-14T02:58:59;8.27;;;1.52;;
39994;SDS011;25686;51.908;10.418;2022-09-14T03:01:00;13.18;;;1.98;;
39994;SDS011;25686;51.908;10.418;2022-09-14T03:03:02;7.13;;;1.65;;
39994;SDS011;25686;51.908;10.418;2022-09-14T03:05:04;12.52;;;1.67;;
39994;SDS011;25686;51.908;10.418;2022-09-14T03:07:05;6.32;;;1.80;;
39994;SDS011;25686;51.908;10.418;2022-09-14T03:09:06;12.00;;;1.80;;
39994;SDS011;25686;51.908;10.418;2022-09-14T03:11:07;10.70;;;1.70;;
39994;SDS011;25686;51.908;10.418;2022-09-14T03:13:08;8.13;;;1.50;;
39994;SDS011;25686;51.908;10.418;2022-09-14T03:15:09;10.35;;;1.65;;
39994;SDS011;25686;51.908;10.418;2022-09-14T03:17:10;7.00;;;1.70;;
39994;SDS011;25686;51.908;10.418;2022-09-14T03:19:11;8.70;;;1.40;;
39994;SDS011;25686;51.908;10.418;2022-09-14T03:21:14;8.20;;;1.65;;
39994;SDS011;25686;51.908;10.418;2022-09-14T03:23:16;10.60;;;1.38;;
39994;SDS011;25686;51.908;10.418;2022-09-14T03:25:17;10.63;;;1.40;;
39994;SDS011;25686;51.908;10.418;2022-09-14T03:27:19;11.40;;;1.75;;
39994;SDS011;25686;51.908;10.418;2022-09-14T03:29:19;8.85;;;1.55;;
39994;SDS011;25686;51.908;10.418;2022-09-14T03:31:21;9.32;;;1.55;;
39994;SDS011;25686;51.908;10.418;2022-09-14T03:33:22;6.72;;;1.35;;
39994;SDS011;25686;51.908;10.418;2022-09-14T03:35:23;10.40;;;1.70;;
39994;SDS011;25686;51.908;10.418;2022-09-14T03:37:24;5.25;;;1.33;;
39994;SDS011;25686;51.908;10.418;2022-09-14T03:39:25;11.88;;;1.52;;
39994;SDS011;25686;51.908;10.418;2022-09-14T03:41:27;8.43;;;1.20;;
39994;SDS011;25686;51.908;10.418;2022-09-14T03:43:28;11.80;;;1.95;;
39994;SDS011;25686;51.908;10.418;2022-09-14T03:45:30;8.18;;;1.67;;
39994;SDS011;25686;51.908;10.418;2022-09-14T03:47:31;6.78;;;1.15;;
39994;SDS011;25686;51.908;10.418;2022-09-14T03:49:33;7.20;;;1.48;;
39994;SDS011;25686;51.908;10.418;2022-09-14T03:51:34;9.75;;;1.40;;
39994;SDS011;25686;51.908;10.418;2022-09-14T03:53:35;8.10;;;1.70;;
39994;SDS011;25686;51.908;10.418;2022-09-14T03:55:38;8.43;;;1.40;;
39994;SDS011;25686;51.908;10.418;2022-09-14T03:57:39;3.28;;;1.20;;
39994;SDS011;25686;51.908;10.418;2022-09-14T03:59:40;5.60;;;1.10;;
39994;SDS011;25686;51.908;10.418;2022-09-14T04:01:41;6.72;;;1.33;;
39994;SDS011;25686;51.908;10.418;2022-09-14T04:03:42;8.88;;;1.38;;
39994;SDS011;25686;51.908;10.418;2022-09-14T04:05:52;7.13;;;1.20;;
39994;SDS011;25686;51.908;10.418;2022-09-14T04:07:54;5.43;;;1.40;;
39994;SDS011;25686;51.908;10.418;2022-09-14T04:09:56;9.55;;;1.45;;
39994;SDS011;25686;51.908;10.418;2022-09-14T04:11:57;4.70;;;1.25;;
39994;SDS011;25686;51.908;10.418;2022-09-14T04:14:01;9.77;;;2.42;;
39994;SDS011;25686;51.908;10.418;2022-09-14T04:16:03;9.18;;;2.63;;
39994;SDS011;25686;51.908;10.418;2022-09-14T04:18:04;9.45;;;3.20;;
39994;SDS011;25686;51.908;10.418;2022-09-14T04:20:05;8.50;;;2.88;;
39994;SDS011;25686;51.908;10.418;2022-09-14T04:22:06;10.20;;;1.98;;
39994;SDS011;25686;51.908;10.418;2022-09-14T04:24:08;6.35;;;1.63;;
39994;SDS011;25686;51.908;10.418;2022-09-14T04:26:11;4.57;;;1.27;;
39994;SDS011;25686;51.908;10.418;2022-09-14T04:28:12;6.00;;;1.60;;
39994;SDS011;25686;51.908;10.418;2022-09-14T04:30:13;6.20;;;2.22;;
39994;SDS011;25686;51.908;10.418;2022-09-14T04:32:14;10.40;;;3.10;;
39994;SDS011;25686;51.908;10.418;2022-09-14T04:34:15;10.43;;;3.58;;
39994;SDS011;25686;51.908;10.418;2022-09-14T04:36:18;9.63;;;2.70;;
39994;SDS011;25686;51.908;10.418;2022-09-14T04:38:19;7.70;;;2.00;;
39994;SDS011;25686;51.908;10.418;2022-09-14T04:40:20;4.78;;;1.40;;
39994;SDS011;25686;51.908;10.418;2022-09-14T04:42:21;8.65;;;1.80;;
39994;SDS011;25686;51.908;10.418;2022-09-14T04:44:22;6.90;;;1.40;;
39994;SDS011;25686;51.908;10.418;2022-09-14T04:46:25;8.07;;;3.00;;
39994;SDS011;25686;51.908;10.418;2022-09-14T04:48:26;7.50;;;3.50;;
39994;SDS011;25686;51.908;10.418;2022-09-14T04:50:27;8.88;;;3.15;;
39994;SDS011;25686;51.908;10.418;2022-09-14T04:52:28;7.63;;;2.20;;
39994;SDS011;25686;51.908;10.418;2022-09-14T04:54:29;7.35;;;2.20;;
39994;SDS011;25686;51.908;10.418;2022-09-14T04:56:32;6.35;;;1.50;;
39994;SDS011;25686;51.908;10.418;2022-09-14T04:58:34;6.15;;;1.60;;
39994;SDS011;25686;51.908;10.418;2022-09-14T05:00:38;7.30;;;1.80;;
39994;SDS011;25686;51.908;10.418;2022-09-14T05:02:40;6.55;;;1.55;;
39994;SDS011;25686;51.908;10.418;2022-09-14T05:04:41;6.47;;;1.80;;
39994;SDS011;25686;51.908;10.418;2022-09-14T05:06:42;6.70;;;1.70;;
39994;SDS011;25686;51.908;10.418;2022-09-14T05:08:43;8.07;;;1.65;;
39994;SDS011;25686;51.908;10.418;2022-09-14T05:10:44;6.57;;;1.83;;
39994;SDS011;25686;51.908;10.418;2022-09-14T05:12:45;6.18;;;1.70;;
39994;SDS011;25686;51.908;10.418;2022-09-14T05:14:46;5.95;;;1.60;;
39994;SDS011;25686;51.908;10.418;2022-09-14T05:16:47;9.48;;;1.50;;
39994;SDS011;25686;51.908;10.418;2022-09-14T05:18:48;6.60;;;1.38;;
39994;SDS011;25686;51.908;10.418;2022-09-14T05:20:50;6.75;;;1.25;;
39994;SDS011;25686;51.908;10.418;2022-09-14T05:22:51;7.20;;;1.38;;
39994;SDS011;25686;51.908;10.418;2022-09-14T05:24:52;5.50;;;1.40;;
39994;SDS011;25686;51.908;10.418;2022-09-14T05:26:53;6.20;;;1.30;;
39994;SDS011;25686;51.908;10.418;2022-09-14T05:28:55;6.22;;;1.45;;
39994;SDS011;25686;51.908;10.418;2022-09-14T05:30:56;7.30;;;1.83;;
39994;SDS011;25686;51.908;10.418;2022-09-14T05:32:57;9.15;;;1.77;;
39994;SDS011;25686;51.908;10.418;2022-09-14T05:34:58;4.90;;;1.48;;
39994;SDS011;25686;51.908;10.418;2022-09-14T05:36:59;9.63;;;1.08;;
39994;SDS011;25686;51.908;10.418;2022-09-14T05:39:00;8.35;;;1.52;;
39994;SDS011;25686;51.908;10.418;2022-09-14T05:41:01;9.88;;;1.70;;
39994;SDS011;25686;51.908;10.418;2022-09-14T05:43:02;4.68;;;1.02;;
39994;SDS011;25686;51.908;10.418;2022-09-14T05:45:03;5.88;;;1.30;;
39994;SDS011;25686;51.908;10.418;2022-09-14T05:47:04;4.03;;;1.23;;
39994;SDS011;25686;51.908;10.418;2022-09-14T05:49:05;10.63;;;1.30;;
39994;SDS011;25686;51.908;10.418;2022-09-14T05:51:08;7.57;;;2.20;;
39994;SDS011;25686;51.908;10.418;2022-09-14T05:53:09;8.88;;;1.35;;
39994;SDS011;25686;51.908;10.418;2022-09-14T05:55:10;8.73;;;1.33;;
39994;SDS011;25686;51.908;10.418;2022-09-14T05:57:11;12.65;;;1.73;;
39994;SDS011;25686;51.908;10.418;2022-09-14T05:59:12;6.85;;;1.40;;
39994;SDS011;25686;51.908;10.418;2022-09-14T06:03:14;5.78;;;1.50;;
39994;SDS011;25686;51.908;10.418;2022-09-14T06:05:15;6.88;;;1.42;;
39994;SDS011;25686;51.908;10.418;2022-09-14T06:07:17;4.05;;;1.30;;
39994;SDS011;25686;51.908;10.418;2022-09-14T06:09:18;9.02;;;1.50;;
39994;SDS011;25686;51.908;10.418;2022-09-14T06:11:19;7.00;;;1.20;;
39994;SDS011;25686;51.908;10.418;2022-09-14T06:13:21;7.68;;;1.65;;
39994;SDS011;25686;51.908;10.418;2022-09-14T06:15:22;5.65;;;1.52;;
39994;SDS011;25686;51.908;10.418;2022-09-14T06:17:23;7.68;;;1.42;;
39994;SDS011;25686;51.908;10.418;2022-09-14T06:19:25;7.05;;;1.85;;
39994;SDS011;25686;51.908;10.418;2022-09-14T06:21:29;6.22;;;1.58;;
39994;SDS011;25686;51.908;10.418;2022-09-14T06:23:31;4.47;;;1.20;;
39994;SDS011;25686;51.908;10.418;2022-09-14T06:25:32;11.75;;;1.27;;
39994;SDS011;25686;51.908;10.418;2022-09-14T06:27:33;8.55;;;1.70;;
39994;SDS011;25686;51.908;10.418;2022-09-14T06:29:34;5.15;;;1.42;;
39994;SDS011;25686;51.908;10.418;2022-09-14T06:31:35;4.95;;;1.42;;
39994;SDS011;25686;51.908;10.418;2022-09-14T06:33:36;4.82;;;1.10;;
39994;SDS011;25686;51.908;10.418;2022-09-14T06:35:37;3.05;;;1.30;;
39994;SDS011;25686;51.908;10.418;2022-09-14T06:37:39;7.40;;;1.58;;
39994;SDS011;25686;51.908;10.418;2022-09-14T06:39:40;7.30;;;1.48;;
39994;SDS011;25686;51.908;10.418;2022-09-14T06:41:41;8.07;;;1.52;;
39994;SDS011;25686;51.908;10.418;2022-09-14T06:43:42;5.60;;;1.45;;
39994;SDS011;25686;51.908;10.418;2022-09-14T06:45:44;5.78;;;1.30;;
39994;SDS011;25686;51.908;10.418;2022-09-14T06:47:54;8.55;;;1.70;;
39994;SDS011;25686;51.908;10.418;2022-09-14T06:49:55;7.72;;;1.27;;
39994;SDS011;25686;51.908;10.418;2022-09-14T06:51:56;9.90;;;1.70;;
39994;SDS011;25686;51.908;10.418;2022-09-14T06:54:00;10.15;;;1.27;;
39994;SDS011;25686;51.908;10.418;2022-09-14T06:56:01;7.90;;;1.52;;
39994;SDS011;25686;51.908;10.418;2022-09-14T06:58:02;6.82;;;1.27;;
39994;SDS011;25686;51.908;10.418;2022-09-14T07:00:03;7.40;;;1.48;;
39994;SDS011;25686;51.908;10.418;2022-09-14T07:02:05;9.75;;;1.80;;
39994;SDS011;25686;51.908;10.418;2022-09-14T07:04:06;7.93;;;1.25;;
39994;SDS011;25686;51.908;10.418;2022-09-14T07:06:08;8.30;;;1.38;;
39994;SDS011;25686;51.908;10.418;2022-09-14T07:08:09;6.80;;;1.70;;
39994;SDS011;25686;51.908;10.418;2022-09-14T07:10:10;9.48;;;1.38;;
39994;SDS011;25686;51.908;10.418;2022-09-14T07:12:11;6.75;;;1.25;;
39994;SDS011;25686;51.908;10.418;2022-09-14T07:14:12;11.55;;;1.45;;
39994;SDS011;25686;51.908;10.418;2022-09-14T07:16:13;9.93;;;1.83;;
39994;SDS011;25686;51.908;10.418;2022-09-14T07:18:15;7.25;;;1.25;;
39994;SDS011;25686;51.908;10.418;2022-09-14T07:20:16;11.48;;;1.50;;
39994;SDS011;25686;51.908;10.418;2022-09-14T07:22:17;6.85;;;1.42;;
39994;SDS011;25686;51.908;10.418;2022-09-14T07:24:18;7.45;;;1.30;;
39994;SDS011;25686;51.908;10.418;2022-09-14T07:26:26;9.48;;;1.63;;
39994;SDS011;25686;51.908;10.418;2022-09-14T07:28:27;7.70;;;1.40;;
39994;SDS011;25686;51.908;10.418;2022-09-14T07:30:28;7.45;;;1.20;;
39994;SDS011;25686;51.908;10.418;2022-09-14T07:32:29;14.95;;;2.15;;
39994;SDS011;25686;51.908;10.418;2022-09-14T07:34:30;9.98;;;1.80;;
39994;SDS011;25686;51.908;10.418;2022-09-14T07:36:32;9.10;;;1.23;;
39994;SDS011;25686;51.908;10.418;2022-09-14T07:38:34;8.63;;;1.50;;
39994;SDS011;25686;51.908;10.418;2022-09-14T07:40:35;10.75;;;1.55;;
39994;SDS011;25686;51.908;10.418;2022-09-14T07:42:36;8.40;;;1.40;;
39994;SDS011;25686;51.908;10.418;2022-09-14T07:44:37;11.68;;;1.60;;
39994;SDS011;25686;51.908;10.418;2022-09-14T07:46:38;9.95;;;1.67;;
39994;SDS011;25686;51.908;10.418;2022-09-14T07:48:40;8.15;;;1.80;;
39994;SDS011;25686;51.908;10.418;2022-09-14T07:50:40;12.45;;;1.60;;
39994;SDS011;25686;51.908;10.418;2022-09-14T07:52:41;8.05;;;1.45;;
39994;SDS011;25686;51.908;10.418;2022-09-14T07:54:42;12.05;;;1.52;;
39994;SDS011;25686;51.908;10.418;2022-09-14T07:56:44;7.78;;;1.40;;
39994;SDS011;25686;51.908;10.418;2022-09-14T07:58:45;7.28;;;1.48;;
39994;SDS011;25686;51.908;10.418;2022-09-14T08:00:46;6.47;;;1.65;;
39994;SDS011;25686;51.908;10.418;2022-09-14T08:02:50;8.65;;;1.38;;
39994;SDS011;25686;51.908;10.418;2022-09-14T08:04:51;15.73;;;1.50;;
39994;SDS011;25686;51.908;10.418;2022-09-14T08:06:52;7.85;;;1.55;;
39994;SDS011;25686;51.908;10.418;2022-09-14T08:08:54;10.93;;;1.48;;
39994;SDS011;25686;51.908;10.418;2022-09-14T08:11:01;10.07;;;1.60;;
39994;SDS011;25686;51.908;10.418;2022-09-14T08:13:02;13.45;;;1.33;;
39994;SDS011;25686;51.908;10.418;2022-09-14T08:15:03;12.80;;;1.50;;
39994;SDS011;25686;51.908;10.418;2022-09-14T08:17:04;8.55;;;1.42;;
39994;SDS011;25686;51.908;10.418;2022-09-14T08:19:07;9.15;;;1.40;;
39994;SDS011;25686;51.908;10.418;2022-09-14T08:21:12;7.80;;;1.38;;
39994;SDS011;25686;51.908;10.418;2022-09-14T08:23:13;10.27;;;1.60;;
39994;SDS011;25686;51.908;10.418;2022-09-14T08:25:14;11.90;;;1.27;;
39994;SDS011;25686;51.908;10.418;2022-09-14T08:27:15;7.97;;;1.50;;
39994;SDS011;25686;51.908;10.418;2022-09-14T08:29:16;8.90;;;1.33;;
39994;SDS011;25686;51.908;10.418;2022-09-14T08:31:20;10.30;;;1.65;;
39994;SDS011;25686;51.908;10.418;2022-09-14T08:33:22;18.10;;;2.40;;
39994;SDS011;25686;51.908;10.418;2022-09-14T08:35:23;8.07;;;1.70;;
39994;SDS011;25686;51.908;10.418;2022-09-14T08:37:24;12.27;;;2.17;;
39994;SDS011;25686;51.908;10.418;2022-09-14T08:39:25;8.50;;;1.75;;
39994;SDS011;25686;51.908;10.418;2022-09-14T08:43:33;11.95;;;2.15;;
39994;SDS011;25686;51.908;10.418;2022-09-14T08:45:34;9.50;;;1.75;;
39994;SDS011;25686;51.908;10.418;2022-09-14T08:47:35;8.20;;;1.75;;
39994;SDS011;25686;51.908;10.418;2022-09-14T08:51:45;8.45;;;1.60;;
39994;SDS011;25686;51.908;10.418;2022-09-14T08:53:46;7.20;;;1.90;;
39994;SDS011;25686;51.908;10.418;2022-09-14T08:55:48;13.15;;;1.73;;
39994;SDS011;25686;51.908;10.418;2022-09-14T08:57:53;9.00;;;1.85;;
39994;SDS011;25686;51.908;10.418;2022-09-14T09:00:08;13.35;;;2.15;;
39994;SDS011;25686;51.908;10.418;2022-09-14T09:06:15;12.80;;;2.22;;
39994;SDS011;25686;51.908;10.418;2022-09-14T09:10:36;12.77;;;3.33;;
39994;SDS011;25686;51.908;10.418;2022-09-14T09:12:39;14.27;;;3.50;;
39994;SDS011;25686;51.908;10.418;2022-09-14T09:14:43;11.30;;;2.78;;
39994;SDS011;25686;51.908;10.418;2022-09-14T09:16:46;12.23;;;2.65;;
39994;SDS011;25686;51.908;10.418;2022-09-14T09:18:50;10.05;;;2.00;;
39994;SDS011;25686;51.908;10.418;2022-09-14T09:21:00;12.93;;;2.10;;
39994;SDS011;25686;51.908;10.418;2022-09-14T09:23:07;14.43;;;2.83;;
39994;SDS011;25686;51.908;10.418;2022-09-14T09:25:14;8.00;;;2.05;;
39994;SDS011;25686;51.908;10.418;2022-09-14T09:27:15;11.65;;;2.03;;
39994;SDS011;25686;51.908;10.418;2022-09-14T09:29:16;15.73;;;3.00;;
39994;SDS011;25686;51.908;10.418;2022-09-14T09:31:18;12.25;;;2.10;;
39994;SDS011;25686;51.908;10.418;2022-09-14T09:33:23;12.30;;;2.08;;
39994;SDS011;25686;51.908;10.418;2022-09-14T09:35:24;13.38;;;2.15;;
39994;SDS011;25686;51.908;10.418;2022-09-14T09:37:25;10.57;;;2.42;;
39994;SDS011;25686;51.908;10.418;2022-09-14T09:39:28;15.05;;;2.40;;
39994;SDS011;25686;51.908;10.418;2022-09-14T09:41:30;12.52;;;2.60;;
39994;SDS011;25686;51.908;10.418;2022-09-14T09:43:35;14.52;;;2.20;;
39994;SDS011;25686;51.908;10.418;2022-09-14T09:45:47;10.13;;;2.63;;
39994;SDS011;25686;51.908;10.418;2022-09-14T09:47:48;11.50;;;2.50;;
39994;SDS011;25686;51.908;10.418;2022-09-14T09:49:50;14.10;;;3.22;;
39994;SDS011;25686;51.908;10.418;2022-09-14T09:52:04;11.52;;;3.17;;
39994;SDS011;25686;51.908;10.418;2022-09-14T09:56:16;15.30;;;3.03;;
39994;SDS011;25686;51.908;10.418;2022-09-14T09:58:32;10.48;;;2.47;;
39994;SDS011;25686;51.908;10.418;2022-09-14T10:00:33;11.95;;;2.47;;
39994;SDS011;25686;51.908;10.418;2022-09-14T10:02:34;11.27;;;2.45;;
39994;SDS011;25686;51.908;10.418;2022-09-14T10:04:36;9.63;;;2.45;;
39994;SDS011;25686;51.908;10.418;2022-09-14T10:06:55;11.20;;;2.38;;
39994;SDS011;25686;51.908;10.418;2022-09-14T10:08:59;13.23;;;2.78;;
39994;SDS011;25686;51.908;10.418;2022-09-14T10:11:00;9.80;;;2.55;;
39994;SDS011;25686;51.908;10.418;2022-09-14T10:13:02;11.60;;;2.47;;
39994;SDS011;25686;51.908;10.418;2022-09-14T10:15:05;7.05;;;2.25;;
39994;SDS011;25686;51.908;10.418;2022-09-14T10:17:18;11.63;;;2.45;;
39994;SDS011;25686;51.908;10.418;2022-09-14T10:19:21;13.82;;;2.40;;
39994;SDS011;25686;51.908;10.418;2022-09-14T10:21:23;12.07;;;2.90;;
39994;SDS011;25686;51.908;10.418;2022-09-14T10:23:26;11.98;;;2.55;;
39994;SDS011;25686;51.908;10.418;2022-09-14T10:25:27;12.25;;;2.20;;
39994;SDS011;25686;51.908;10.418;2022-09-14T10:27:33;11.18;;;2.42;;
39994;SDS011;25686;51.908;10.418;2022-09-14T10:29:41;15.35;;;2.88;;
39994;SDS011;25686;51.908;10.418;2022-09-14T10:31:42;8.90;;;2.50;;
39994;SDS011;25686;51.908;10.418;2022-09-14T10:33:53;13.02;;;2.65;;
39994;SDS011;25686;51.908;10.418;2022-09-14T10:38:02;15.20;;;2.53;;
39994;SDS011;25686;51.908;10.418;2022-09-14T10:42:11;12.05;;;2.35;;
39994;SDS011;25686;51.908;10.418;2022-09-14T10:47:02;11.20;;;2.33;;
39994;SDS011;25686;51.908;10.418;2022-09-14T10:55:46;11.70;;;2.50;;
39994;SDS011;25686;51.908;10.418;2022-09-14T10:57:56;10.55;;;2.28;;
39994;SDS011;25686;51.908;10.418;2022-09-14T11:00:12;10.68;;;2.20;;
39994;SDS011;25686;51.908;10.418;2022-09-14T11:02:30;12.38;;;2.33;;
39994;SDS011;25686;51.908;10.418;2022-09-14T11:04:42;11.05;;;2.40;;
39994;SDS011;25686;51.908;10.418;2022-09-14T11:08:55;11.68;;;2.30;;
39994;SDS011;25686;51.908;10.418;2022-09-14T11:13:31;11.07;;;2.10;;
39994;SDS011;25686;51.908;10.418;2022-09-14T11:17:56;11.73;;;2.53;;
39994;SDS011;25686;51.908;10.418;2022-09-14T11:20:17;9.98;;;2.28;;
39994;SDS011;25686;51.908;10.418;2022-09-14T11:22:36;8.65;;;2.00;;
39994;SDS011;25686;51.908;10.418;2022-09-14T11:24:42;10.07;;;2.08;;
39994;SDS011;25686;51.908;10.418;2022-09-14T11:26:46;13.40;;;2.78;;
39994;SDS011;25686;51.908;10.418;2022-09-14T11:31:09;11.30;;;1.92;;
39994;SDS011;25686;51.908;10.418;2022-09-14T11:33:19;7.75;;;2.17;;
39994;SDS011;25686;51.908;10.418;2022-09-14T11:35:28;9.18;;;2.72;;
39994;SDS011;25686;51.908;10.418;2022-09-14T11:37:39;11.60;;;2.78;;
39994;SDS011;25686;51.908;10.418;2022-09-14T11:39:47;15.02;;;2.67;;
39994;SDS011;25686;51.908;10.418;2022-09-14T11:41:53;11.80;;;2.47;;
39994;SDS011;25686;51.908;10.418;2022-09-14T11:44:03;8.68;;;2.80;;
39994;SDS011;25686;51.908;10.418;2022-09-14T11:46:06;12.05;;;2.42;;
39994;SDS011;25686;51.908;10.418;2022-09-14T11:48:19;8.90;;;2.67;;
39994;SDS011;25686;51.908;10.418;2022-09-14T11:50:22;12.23;;;2.50;;
39994;SDS011;25686;51.908;10.418;2022-09-14T11:52:24;8.07;;;2.15;;
39994;SDS011;25686;51.908;10.418;2022-09-14T11:54:26;11.02;;;2.58;;
39994;SDS011;25686;51.908;10.418;2022-09-14T11:56:30;9.93;;;2.55;;
39994;SDS011;25686;51.908;10.418;2022-09-14T11:58:32;9.07;;;2.28;;
39994;SDS011;25686;51.908;10.418;2022-09-14T12:07:10;9.68;;;2.75;;
39994;SDS011;25686;51.908;10.418;2022-09-14T12:11:24;15.88;;;2.67;;
39994;SDS011;25686;51.908;10.418;2022-09-14T12:13:25;10.45;;;3.25;;
39994;SDS011;25686;51.908;10.418;2022-09-14T12:17:29;14.25;;;2.40;;
39994;SDS011;25686;51.908;10.418;2022-09-14T12:19:31;15.13;;;2.78;;
39994;SDS011;25686;51.908;10.418;2022-09-14T12:21:33;11.63;;;2.50;;
39994;SDS011;25686;51.908;10.418;2022-09-14T12:25:38;9.75;;;2.33;;
39994;SDS011;25686;51.908;10.418;2022-09-14T12:27:40;11.23;;;2.30;;
39994;SDS011;25686;51.908;10.418;2022-09-14T12:29:41;11.85;;;2.75;;
39994;SDS011;25686;51.908;10.418;2022-09-14T12:34:03;10.70;;;2.60;;
39994;SDS011;25686;51.908;10.418;2022-09-14T12:40:31;13.70;;;2.65;;
39994;SDS011;25686;51.908;10.418;2022-09-14T12:42:33;9.18;;;2.70;;
39994;SDS011;25686;51.908;10.418;2022-09-14T12:46:35;11.43;;;2.60;;
39994;SDS011;25686;51.908;10.418;2022-09-14T12:50:48;8.95;;;2.70;;
39994;SDS011;25686;51.908;10.418;2022-09-14T12:53:06;6.95;;;2.53;;
39994;SDS011;25686;51.908;10.418;2022-09-14T12:55:19;14.40;;;2.67;;
39994;SDS011;25686;51.908;10.418;2022-09-14T12:57:25;12.23;;;2.78;;
39994;SDS011;25686;51.908;10.418;2022-09-14T12:59:38;10.93;;;2.92;;
39994;SDS011;25686;51.908;10.418;2022-09-14T13:03:55;11.93;;;2.97;;
39994;SDS011;25686;51.908;10.418;2022-09-14T13:05:56;14.25;;;2.50;;
39994;SDS011;25686;51.908;10.418;2022-09-14T13:07:58;7.80;;;2.30;;
39994;SDS011;25686;51.908;10.418;2022-09-14T13:09:59;8.85;;;2.67;;
39994;SDS011;25686;51.908;10.418;2022-09-14T13:12:02;8.88;;;2.97;;
39994;SDS011;25686;51.908;10.418;2022-09-14T13:14:04;13.68;;;2.80;;
39994;SDS011;25686;51.908;10.418;2022-09-14T13:16:07;12.93;;;2.80;;
39994;SDS011;25686;51.908;10.418;2022-09-14T13:18:57;9.25;;;2.63;;
39994;SDS011;25686;51.908;10.418;2022-09-14T13:20:30;12.27;;;2.33;;
39994;SDS011;25686;51.908;10.418;2022-09-14T13:22:31;9.75;;;2.78;;
39994;SDS011;25686;51.908;10.418;2022-09-14T13:26:33;13.52;;;2.92;;
39994;SDS011;25686;51.908;10.418;2022-09-14T13:28:35;11.10;;;3.08;;
39994;SDS011;25686;51.908;10.418;2022-09-14T13:30:37;13.88;;;2.85;;
39994;SDS011;25686;51.908;10.418;2022-09-14T13:32:41;12.63;;;3.13;;
39994;SDS011;25686;51.908;10.418;2022-09-14T13:34:42;10.73;;;3.20;;